Terminal Aerodrome Forecast
Issued by NWS

Home | Current Version | Previous Version | Text Only | Print | Product List | Glossary Off
Versions: 1 2 3 4 5 6 7 8 9 10 11 12 13 14 15 16 17 18 19

000
FTUS43 KUNR 271939 AAA
TAFGCC
TAF AMD
KGCC 271939Z 2720/2818 27005KT P6SM BKN150
      TEMPO 2720/2721 -TSRA BKN060CB
     FM272100 27020G30KT P6SM SCT100
      TEMPO 2721/2801 -TSRA BKN060CB
     FM280100 31027G37KT P6SM SCT060
     FM280600 30011KT P6SM SKC=

USA.gov is the U.S. government's official web portal to all federal, state and local government web resources and services.